sensor_id;sensor_type;location;lat;lon;timestamp;temperature;humidity
18341;DHT22;9296;48.084;16.352;2023-04-08T04:30:32;20.10;86.40
18341;DHT22;9296;48.084;16.352;2023-04-08T04:32:59;4.20;99.90
18341;DHT22;9296;48.084;16.352;2023-04-08T04:35:29;3.90;99.90
18341;DHT22;9296;48.084;16.352;2023-04-08T04:38:09;4.00;99.90
18341;DHT22;9296;48.084;16.352;2023-04-08T04:40:37;4.00;99.90
18341;DHT22;9296;48.084;16.352;2023-04-08T04:43:04;4.00;99.90
18341;DHT22;9296;48.084;16.352;2023-04-08T04:45:32;3.90;99.90
18341;DHT22;9296;48.084;16.352;2023-04-08T04:47:59;3.80;99.90
18341;DHT22;9296;48.084;16.352;2023-04-08T04:50:29;3.90;99.90
18341;DHT22;9296;48.084;16.352;2023-04-08T04:53:12;3.90;99.90
18341;DHT22;9296;48.084;16.352;2023-04-08T04:55:46;3.90;99.90
18341;DHT22;9296;48.084;16.352;2023-04-08T04:58:14;4.00;99.90
18341;DHT22;9296;48.084;16.352;2023-04-08T05:00:42;4.10;99.90
18341;DHT22;9296;48.084;16.352;2023-04-08T05:03:10;4.10;99.90
18341;DHT22;9296;48.084;16.352;2023-04-08T05:05:37;4.20;99.90
18341;DHT22;9296;48.084;16.352;2023-04-08T05:08:04;4.20;99.90
18341;DHT22;9296;48.084;16.352;2023-04-08T05:10:33;4.40;99.90
18341;DHT22;9296;48.084;16.352;2023-04-08T05:13:00;4.50;99.90
18341;DHT22;9296;48.084;16.352;2023-04-08T05:15:27;4.50;99.90
18341;DHT22;9296;48.084;16.352;2023-04-08T05:17:54;4.60;99.90
18341;DHT22;9296;48.084;16.352;2023-04-08T05:20:21;4.60;99.90
18341;DHT22;9296;48.084;16.352;2023-04-08T05:22:48;4.70;99.90
18341;DHT22;9296;48.084;16.352;2023-04-08T05:25:15;4.70;99.90
18341;DHT22;9296;48.084;16.352;2023-04-08T05:27:43;4.70;99.90
18341;DHT22;9296;48.084;16.352;2023-04-08T05:30:11;4.70;99.90
18341;DHT22;9296;48.084;16.352;2023-04-08T05:32:38;4.80;99.90
18341;DHT22;9296;48.084;16.352;2023-04-08T05:35:06;4.80;99.90
18341;DHT22;9296;48.084;16.352;2023-04-08T05:37:34;4.70;99.90
18341;DHT22;9296;48.084;16.352;2023-04-08T05:40:01;4.50;99.90
18341;DHT22;9296;48.084;16.352;2023-04-08T05:42:28;4.70;99.90
18341;DHT22;9296;48.084;16.352;2023-04-08T05:44:56;4.40;99.90
18341;DHT22;9296;48.084;16.352;2023-04-08T05:47:23;4.30;99.90
18341;DHT22;9296;48.084;16.352;2023-04-08T05:49:50;4.20;99.90
18341;DHT22;9296;48.084;16.352;2023-04-08T05:52:17;4.10;99.90
18341;DHT22;9296;48.084;16.352;2023-04-08T05:54:44;4.00;99.90
18341;DHT22;9296;48.084;16.352;2023-04-08T05:57:20;4.00;99.90
18341;DHT22;9296;48.084;16.352;2023-04-08T05:59:47;4.00;99.90
18341;DHT22;9296;48.084;16.352;2023-04-08T06:02:19;4.00;99.90
18341;DHT22;9296;48.084;16.352;2023-04-08T06:04:46;4.00;99.90
18341;DHT22;9296;48.084;16.352;2023-04-08T06:07:33;4.10;99.90
18341;DHT22;9296;48.084;16.352;2023-04-08T06:10:01;4.20;99.90
18341;DHT22;9296;48.084;16.352;2023-04-08T06:12:29;4.20;99.90
18341;DHT22;9296;48.084;16.352;2023-04-08T06:14:57;4.30;99.90
18341;DHT22;9296;48.084;16.352;2023-04-08T06:17:25;4.30;99.90
18341;DHT22;9296;48.084;16.352;2023-04-08T06:20:11;4.40;99.90
18341;DHT22;9296;48.084;16.352;2023-04-08T06:22:38;4.50;99.90
18341;DHT22;9296;48.084;16.352;2023-04-08T06:25:05;4.80;99.90
18341;DHT22;9296;48.084;16.352;2023-04-08T06:27:32;4.60;99.90
18341;DHT22;9296;48.084;16.352;2023-04-08T06:29:59;4.60;99.90
18341;DHT22;9296;48.084;16.352;2023-04-08T06:32:28;4.50;99.90
18341;DHT22;9296;48.084;16.352;2023-04-08T06:34:55;4.40;99.90
18341;DHT22;9296;48.084;16.352;2023-04-08T06:37:22;4.60;99.90
18341;DHT22;9296;48.084;16.352;2023-04-08T06:39:49;4.70;99.90
18341;DHT22;9296;48.084;16.352;2023-04-08T06:42:16;4.80;99.90
18341;DHT22;9296;48.084;16.352;2023-04-08T06:44:43;5.00;99.90
18341;DHT22;9296;48.084;16.352;2023-04-08T06:47:09;5.40;99.90
18341;DHT22;9296;48.084;16.352;2023-04-08T06:53:00;5.40;99.90
18341;DHT22;9296;48.084;16.352;2023-04-08T06:55:27;5.40;99.90
18341;DHT22;9296;48.084;16.352;2023-04-08T06:57:54;5.60;99.90
18341;DHT22;9296;48.084;16.352;2023-04-08T07:00:21;5.60;99.90
18341;DHT22;9296;48.084;16.352;2023-04-08T07:02:48;5.60;99.90
18341;DHT22;9296;48.084;16.352;2023-04-08T07:05:15;5.70;99.90
18341;DHT22;9296;48.084;16.352;2023-04-08T07:07:41;5.80;99.90
18341;DHT22;9296;48.084;16.352;2023-04-08T07:10:11;5.80;99.90
18341;DHT22;9296;48.084;16.352;2023-04-08T07:12:38;5.80;99.90
18341;DHT22;9296;48.084;16.352;2023-04-08T07:15:06;5.90;99.90
18341;DHT22;9296;48.084;16.352;2023-04-08T07:17:33;5.90;99.90
18341;DHT22;9296;48.084;16.352;2023-04-08T07:20:00;5.90;99.90
18341;DHT22;9296;48.084;16.352;2023-04-08T07:22:27;5.90;99.90
18341;DHT22;9296;48.084;16.352;2023-04-08T07:24:54;5.90;99.90
18341;DHT22;9296;48.084;16.352;2023-04-08T07:27:22;5.90;99.90
18341;DHT22;9296;48.084;16.352;2023-04-08T07:29:51;6.00;99.90
18341;DHT22;9296;48.084;16.352;2023-04-08T07:32:19;6.10;99.90
18341;DHT22;9296;48.084;16.352;2023-04-08T07:35:05;6.10;99.90
18341;DHT22;9296;48.084;16.352;2023-04-08T07:37:32;6.10;99.90
18341;DHT22;9296;48.084;16.352;2023-04-08T07:39:58;6.10;99.90
18341;DHT22;9296;48.084;16.352;2023-04-08T07:42:27;6.10;99.90
18341;DHT22;9296;48.084;16.352;2023-04-08T07:44:54;6.10;99.90
18341;DHT22;9296;48.084;16.352;2023-04-08T07:47:21;6.00;99.90
18341;DHT22;9296;48.084;16.352;2023-04-08T07:49:48;5.90;99.90
18341;DHT22;9296;48.084;16.352;2023-04-08T07:52:14;5.90;99.90
18341;DHT22;9296;48.084;16.352;2023-04-08T07:54:42;5.90;99.90
18341;DHT22;9296;48.084;16.352;2023-04-08T07:57:09;5.80;99.90
18341;DHT22;9296;48.084;16.352;2023-04-08T07:59:38;5.90;99.90
18341;DHT22;9296;48.084;16.352;2023-04-08T08:02:05;5.90;99.90
18341;DHT22;9296;48.084;16.352;2023-04-08T08:04:32;6.00;99.90
18341;DHT22;9296;48.084;16.352;2023-04-08T08:06:59;6.10;99.90
18341;DHT22;9296;48.084;16.352;2023-04-08T08:09:26;6.30;99.90
18341;DHT22;9296;48.084;16.352;2023-04-08T08:11:53;6.10;99.90
18341;DHT22;9296;48.084;16.352;2023-04-08T08:14:20;6.30;99.90
18341;DHT22;9296;48.084;16.352;2023-04-08T08:16:48;6.10;99.90
18341;DHT22;9296;48.084;16.352;2023-04-08T08:22:36;6.10;99.90
18341;DHT22;9296;48.084;16.352;2023-04-08T08:25:05;6.10;99.90
18341;DHT22;9296;48.084;16.352;2023-04-08T08:27:34;6.10;99.90
18341;DHT22;9296;48.084;16.352;2023-04-08T08:30:01;6.20;99.90
18341;DHT22;9296;48.084;16.352;2023-04-08T08:32:30;6.30;99.90
18341;DHT22;9296;48.084;16.352;2023-04-08T08:34:57;6.10;99.90
18341;DHT22;9296;48.084;16.352;2023-04-08T08:37:24;6.10;99.90
18341;DHT22;9296;48.084;16.352;2023-04-08T08:39:51;6.10;99.90
18341;DHT22;9296;48.084;16.352;2023-04-08T08:42:18;6.10;99.90
18341;DHT22;9296;48.084;16.352;2023-04-08T08:44:47;6.10;99.90
18341;DHT22;9296;48.084;16.352;2023-04-08T08:47:14;6.10;99.90
18341;DHT22;9296;48.084;16.352;2023-04-08T08:49:43;6.20;99.90
18341;DHT22;9296;48.084;16.352;2023-04-08T08:52:11;6.20;99.90
18341;DHT22;9296;48.084;16.352;2023-04-08T08:54:41;6.10;99.90
18341;DHT22;9296;48.084;16.352;2023-04-08T08:57:15;6.20;99.90
18341;DHT22;9296;48.084;16.352;2023-04-08T08:59:44;6.20;99.90
18341;DHT22;9296;48.084;16.352;2023-04-08T09:02:23;6.10;99.90
18341;DHT22;9296;48.084;16.352;2023-04-08T09:05:11;6.10;99.90
18341;DHT22;9296;48.084;16.352;2023-04-08T09:07:38;6.00;99.90
18341;DHT22;9296;48.084;16.352;2023-04-08T09:10:07;6.00;99.90
18341;DHT22;9296;48.084;16.352;2023-04-08T09:12:35;6.10;99.90
18341;DHT22;9296;48.084;16.352;2023-04-08T09:15:18;6.10;99.90
18341;DHT22;9296;48.084;16.352;2023-04-08T09:17:45;6.20;99.90
18341;DHT22;9296;48.084;16.352;2023-04-08T09:20:52;6.30;99.90
18341;DHT22;9296;48.084;16.352;2023-04-08T09:23:19;6.20;99.90
18341;DHT22;9296;48.084;16.352;2023-04-08T09:25:46;6.20;99.90
18341;DHT22;9296;48.084;16.352;2023-04-08T09:28:18;6.20;99.90
18341;DHT22;9296;48.084;16.352;2023-04-08T09:30:45;6.20;99.90
18341;DHT22;9296;48.084;16.352;2023-04-08T09:33:13;6.30;99.90
18341;DHT22;9296;48.084;16.352;2023-04-08T09:35:39;6.40;99.90
18341;DHT22;9296;48.084;16.352;2023-04-08T09:38:08;6.50;99.90
18341;DHT22;9296;48.084;16.352;2023-04-08T09:40:35;6.30;99.90
18341;DHT22;9296;48.084;16.352;2023-04-08T09:43:04;6.20;99.90
18341;DHT22;9296;48.084;16.352;2023-04-08T09:45:33;6.10;99.90
18341;DHT22;9296;48.084;16.352;2023-04-08T09:48:09;6.30;99.90
18341;DHT22;9296;48.084;16.352;2023-04-08T09:51:14;6.30;99.90
18341;DHT22;9296;48.084;16.352;2023-04-08T09:53:46;6.30;99.90
18341;DHT22;9296;48.084;16.352;2023-04-08T09:56:13;6.60;99.90
18341;DHT22;9296;48.084;16.352;2023-04-08T09:58:46;6.40;99.90
18341;DHT22;9296;48.084;16.352;2023-04-08T10:01:16;6.50;99.90
18341;DHT22;9296;48.084;16.352;2023-04-08T10:07:47;6.60;99.90
18341;DHT22;9296;48.084;16.352;2023-04-08T10:10:16;6.70;99.90
18341;DHT22;9296;48.084;16.352;2023-04-08T10:12:43;6.90;99.90
18341;DHT22;9296;48.084;16.352;2023-04-08T10:15:24;6.90;99.90
18341;DHT22;9296;48.084;16.352;2023-04-08T10:17:52;7.10;99.90
18341;DHT22;9296;48.084;16.352;2023-04-08T10:23:54;7.20;99.90
18341;DHT22;9296;48.084;16.352;2023-04-08T10:26:35;7.30;99.90
18341;DHT22;9296;48.084;16.352;2023-04-08T10:29:28;7.30;99.90
18341;DHT22;9296;48.084;16.352;2023-04-08T10:31:56;7.40;99.90
18341;DHT22;9296;48.084;16.352;2023-04-08T10:34:24;7.40;99.90
18341;DHT22;9296;48.084;16.352;2023-04-08T10:36:52;7.40;99.90
18341;DHT22;9296;48.084;16.352;2023-04-08T10:39:20;7.50;99.90
18341;DHT22;9296;48.084;16.352;2023-04-08T10:41:49;7.50;99.90
18341;DHT22;9296;48.084;16.352;2023-04-08T10:44:16;7.50;99.90
18341;DHT22;9296;48.084;16.352;2023-04-08T10:46:43;7.50;99.90
18341;DHT22;9296;48.084;16.352;2023-04-08T10:49:10;7.40;99.90
18341;DHT22;9296;48.084;16.352;2023-04-08T10:51:38;7.50;99.90
18341;DHT22;9296;48.084;16.352;2023-04-08T10:54:06;7.50;99.90
18341;DHT22;9296;48.084;16.352;2023-04-08T10:56:34;7.50;99.90
18341;DHT22;9296;48.084;16.352;2023-04-08T10:59:04;7.40;99.90
18341;DHT22;9296;48.084;16.352;2023-04-08T11:01:37;7.30;99.90
18341;DHT22;9296;48.084;16.352;2023-04-08T11:04:29;7.30;99.90
18341;DHT22;9296;48.084;16.352;2023-04-08T11:06:56;7.40;99.90
18341;DHT22;9296;48.084;16.352;2023-04-08T11:09:23;7.30;99.90
18341;DHT22;9296;48.084;16.352;2023-04-08T11:11:51;7.30;99.90
18341;DHT22;9296;48.084;16.352;2023-04-08T11:14:20;7.30;99.90
18341;DHT22;9296;48.084;16.352;2023-04-08T11:16:49;7.20;99.90
18341;DHT22;9296;48.084;16.352;2023-04-08T11:19:17;7.30;99.90
18341;DHT22;9296;48.084;16.352;2023-04-08T11:21:44;7.30;99.90
18341;DHT22;9296;48.084;16.352;2023-04-08T11:24:12;7.30;99.90
18341;DHT22;9296;48.084;16.352;2023-04-08T11:26:41;7.30;99.90
18341;DHT22;9296;48.084;16.352;2023-04-08T11:29:10;7.30;99.90
18341;DHT22;9296;48.084;16.352;2023-04-08T11:31:41;7.10;99.90
18341;DHT22;9296;48.084;16.352;2023-04-08T11:34:08;7.00;99.90
18341;DHT22;9296;48.084;16.352;2023-04-08T11:36:35;6.90;99.90
18341;DHT22;9296;48.084;16.352;2023-04-08T11:39:06;6.80;99.90
18341;DHT22;9296;48.084;16.352;2023-04-08T11:41:38;6.80;99.90
18341;DHT22;9296;48.084;16.352;2023-04-08T11:44:05;6.90;99.90
18341;DHT22;9296;48.084;16.352;2023-04-08T11:46:32;6.90;99.90
18341;DHT22;9296;48.084;16.352;2023-04-08T11:49:03;6.90;99.90
18341;DHT22;9296;48.084;16.352;2023-04-08T11:51:31;6.70;99.90
18341;DHT22;9296;48.084;16.352;2023-04-08T11:53:59;6.70;99.90
18341;DHT22;9296;48.084;16.352;2023-04-08T11:56:27;6.60;99.90
18341;DHT22;9296;48.084;16.352;2023-04-08T11:58:55;6.70;99.90
18341;DHT22;9296;48.084;16.352;2023-04-08T12:01:22;6.70;99.90
18341;DHT22;9296;48.084;16.352;2023-04-08T12:03:56;6.70;99.90
18341;DHT22;9296;48.084;16.352;2023-04-08T12:06:25;6.70;99.90
18341;DHT22;9296;48.084;16.352;2023-04-08T12:08:54;6.80;99.90
18341;DHT22;9296;48.084;16.352;2023-04-08T12:11:21;6.70;99.90
18341;DHT22;9296;48.084;16.352;2023-04-08T12:13:48;6.70;99.90
18341;DHT22;9296;48.084;16.352;2023-04-08T12:16:17;6.70;99.90
18341;DHT22;9296;48.084;16.352;2023-04-08T12:18:44;6.70;99.90
18341;DHT22;9296;48.084;16.352;2023-04-08T12:21:11;6.80;99.90
18341;DHT22;9296;48.084;16.352;2023-04-08T12:23:40;6.90;99.90
18341;DHT22;9296;48.084;16.352;2023-04-08T12:26:07;7.00;99.90
18341;DHT22;9296;48.084;16.352;2023-04-08T12:28:34;7.30;99.90
18341;DHT22;9296;48.084;16.352;2023-04-08T12:31:01;7.60;99.90
18341;DHT22;9296;48.084;16.352;2023-04-08T12:33:28;7.90;99.90
18341;DHT22;9296;48.084;16.352;2023-04-08T12:39:19;8.30;99.90
18341;DHT22;9296;48.084;16.352;2023-04-08T12:41:46;8.40;99.90
18341;DHT22;9296;48.084;16.352;2023-04-08T12:44:12;8.40;99.90
18341;DHT22;9296;48.084;16.352;2023-04-08T12:46:39;8.50;99.90
18341;DHT22;9296;48.084;16.352;2023-04-08T12:55:37;8.70;99.90
18341;DHT22;9296;48.084;16.352;2023-04-08T12:58:04;8.90;99.90
18341;DHT22;9296;48.084;16.352;2023-04-08T13:00:31;8.50;99.90
18341;DHT22;9296;48.084;16.352;2023-04-08T13:02:58;8.50;99.90
18341;DHT22;9296;48.084;16.352;2023-04-08T13:08:47;8.30;99.90
18341;DHT22;9296;48.084;16.352;2023-04-08T13:11:15;8.20;99.90
18341;DHT22;9296;48.084;16.352;2023-04-08T13:13:42;8.20;99.90
18341;DHT22;9296;48.084;16.352;2023-04-08T13:16:10;8.30;99.90
18341;DHT22;9296;48.084;16.352;2023-04-08T13:18:38;8.30;99.90
18341;DHT22;9296;48.084;16.352;2023-04-08T13:21:23;8.30;99.90
18341;DHT22;9296;48.084;16.352;2023-04-08T13:23:51;8.40;99.90
18341;DHT22;9296;48.084;16.352;2023-04-08T13:26:20;8.40;99.90
18341;DHT22;9296;48.084;16.352;2023-04-08T13:28:47;8.30;99.90
18341;DHT22;9296;48.084;16.352;2023-04-08T13:31:16;8.40;99.90
18341;DHT22;9296;48.084;16.352;2023-04-08T13:33:43;8.50;99.90
18341;DHT22;9296;48.084;16.352;2023-04-08T13:36:10;8.40;99.90
18341;DHT22;9296;48.084;16.352;2023-04-08T13:38:37;8.30;99.90
18341;DHT22;9296;48.084;16.352;2023-04-08T13:41:04;8.30;99.90
18341;DHT22;9296;48.084;16.352;2023-04-08T13:43:32;8.30;99.90
18341;DHT22;9296;48.084;16.352;2023-04-08T13:46:00;8.20;99.90
18341;DHT22;9296;48.084;16.352;2023-04-08T13:48:27;8.10;99.90
18341;DHT22;9296;48.084;16.352;2023-04-08T13:50:54;8.10;99.90
18341;DHT22;9296;48.084;16.352;2023-04-08T13:53:21;8.10;99.90
18341;DHT22;9296;48.084;16.352;2023-04-08T13:55:48;8.10;99.90
18341;DHT22;9296;48.084;16.352;2023-04-08T13:58:19;8.10;99.90
18341;DHT22;9296;48.084;16.352;2023-04-08T14:00:48;8.20;99.90
18341;DHT22;9296;48.084;16.352;2023-04-08T14:03:15;8.10;99.90
18341;DHT22;9296;48.084;16.352;2023-04-08T14:05:42;8.10;99.90
18341;DHT22;9296;48.084;16.352;2023-04-08T14:08:09;8.10;99.90
18341;DHT22;9296;48.084;16.352;2023-04-08T14:10:37;8.20;99.90
18341;DHT22;9296;48.084;16.352;2023-04-08T14:13:05;8.20;99.90
18341;DHT22;9296;48.084;16.352;2023-04-08T14:15:32;8.20;99.90
18341;DHT22;9296;48.084;16.352;2023-04-08T14:18:00;8.20;99.90
18341;DHT22;9296;48.084;16.352;2023-04-08T14:20:27;8.20;99.90
18341;DHT22;9296;48.084;16.352;2023-04-08T14:22:54;8.20;99.90
18341;DHT22;9296;48.084;16.352;2023-04-08T14:25:21;8.20;99.90
18341;DHT22;9296;48.084;16.352;2023-04-08T14:27:48;8.30;99.90
18341;DHT22;9296;48.084;16.352;2023-04-08T14:30:15;8.30;99.90
18341;DHT22;9296;48.084;16.352;2023-04-08T14:32:42;8.30;99.90
18341;DHT22;9296;48.084;16.352;2023-04-08T14:38:54;8.30;99.90
18341;DHT22;9296;48.084;16.352;2023-04-08T14:41:20;8.30;99.90
18341;DHT22;9296;48.084;16.352;2023-04-08T14:43:48;8.20;99.90
18341;DHT22;9296;48.084;16.352;2023-04-08T14:46:15;8.20;99.90
18341;DHT22;9296;48.084;16.352;2023-04-08T14:48:42;8.30;99.90
18341;DHT22;9296;48.084;16.352;2023-04-08T14:54:32;8.30;99.90
18341;DHT22;9296;48.084;16.352;2023-04-08T14:56:59;8.30;99.90
18341;DHT22;9296;48.084;16.352;2023-04-08T14:59:27;8.20;99.90
18341;DHT22;9296;48.084;16.352;2023-04-08T15:01:54;8.20;99.90
18341;DHT22;9296;48.084;16.352;2023-04-08T15:04:21;8.20;99.90
18341;DHT22;9296;48.084;16.352;2023-04-08T15:10:11;8.20;99.90
18341;DHT22;9296;48.084;16.352;2023-04-08T15:12:38;8.30;99.90
18341;DHT22;9296;48.084;16.352;2023-04-08T15:15:07;8.40;99.90
18341;DHT22;9296;48.084;16.352;2023-04-08T15:17:34;8.40;99.90
18341;DHT22;9296;48.084;16.352;2023-04-08T15:20:01;8.50;99.90
18341;DHT22;9296;48.084;16.352;2023-04-08T15:22:28;8.50;99.90
18341;DHT22;9296;48.084;16.352;2023-04-08T15:24:54;8.50;99.90
18341;DHT22;9296;48.084;16.352;2023-04-08T15:27:23;8.40;99.90
18341;DHT22;9296;48.084;16.352;2023-04-08T15:29:49;8.30;99.90
18341;DHT22;9296;48.084;16.352;2023-04-08T15:32:16;8.30;99.90
18341;DHT22;9296;48.084;16.352;2023-04-08T15:34:43;8.20;99.90
18341;DHT22;9296;48.084;16.352;2023-04-08T15:37:10;8.20;99.90
18341;DHT22;9296;48.084;16.352;2023-04-08T15:39:37;8.20;99.90
18341;DHT22;9296;48.084;16.352;2023-04-08T15:42:06;8.20;99.90
18341;DHT22;9296;48.084;16.352;2023-04-08T15:44:34;8.30;99.90
18341;DHT22;9296;48.084;16.352;2023-04-08T15:47:01;8.30;99.90
18341;DHT22;9296;48.084;16.352;2023-04-08T15:49:29;8.30;99.90
18341;DHT22;9296;48.084;16.352;2023-04-08T15:55:18;8.30;99.90
18341;DHT22;9296;48.084;16.352;2023-04-08T15:57:45;8.20;99.90
18341;DHT22;9296;48.084;16.352;2023-04-08T16:00:14;8.20;99.90
18341;DHT22;9296;48.084;16.352;2023-04-08T16:02:41;8.20;99.90
18341;DHT22;9296;48.084;16.352;2023-04-08T16:08:16;8.10;99.90
18341;DHT22;9296;48.084;16.352;2023-04-08T16:10:43;8.10;99.90
18341;DHT22;9296;48.084;16.352;2023-04-08T16:13:11;8.10;99.90
18341;DHT22;9296;48.084;16.352;2023-04-08T16:15:39;8.10;99.90
18341;DHT22;9296;48.084;16.352;2023-04-08T16:18:07;8.10;99.90
18341;DHT22;9296;48.084;16.352;2023-04-08T16:23:40;8.00;99.90
18341;DHT22;9296;48.084;16.352;2023-04-08T16:26:07;8.00;99.90
18341;DHT22;9296;48.084;16.352;2023-04-08T16:28:34;8.00;99.90
18341;DHT22;9296;48.084;16.352;2023-04-08T16:31:02;8.00;99.90
18341;DHT22;9296;48.084;16.352;2023-04-08T16:33:30;7.90;99.90
18341;DHT22;9296;48.084;16.352;2023-04-08T16:39:34;7.90;99.90
18341;DHT22;9296;48.084;16.352;2023-04-08T16:42:01;7.80;99.90
18341;DHT22;9296;48.084;16.352;2023-04-08T16:44:28;7.90;99.90
18341;DHT22;9296;48.084;16.352;2023-04-08T16:46:56;7.80;99.90
18341;DHT22;9296;48.084;16.352;2023-04-08T16:49:23;7.80;99.90
18341;DHT22;9296;48.084;16.352;2023-04-08T16:51:50;7.80;99.90
18341;DHT22;9296;48.084;16.352;2023-04-08T16:54:17;7.80;99.90
18341;DHT22;9296;48.084;16.352;2023-04-08T16:56:44;7.80;99.90
18341;DHT22;9296;48.084;16.352;2023-04-08T16:59:11;7.80;99.90
18341;DHT22;9296;48.084;16.352;2023-04-08T17:01:38;7.80;99.90
18341;DHT22;9296;48.084;16.352;2023-04-08T17:04:07;7.70;99.90
18341;DHT22;9296;48.084;16.352;2023-04-08T17:06:34;7.70;99.90
18341;DHT22;9296;48.084;16.352;2023-04-08T17:09:02;7.70;99.90
18341;DHT22;9296;48.084;16.352;2023-04-08T17:11:29;7.70;99.90
18341;DHT22;9296;48.084;16.352;2023-04-08T17:13:56;7.70;99.90
18341;DHT22;9296;48.084;16.352;2023-04-08T17:16:23;7.70;99.90
18341;DHT22;9296;48.084;16.352;2023-04-08T17:18:50;7.60;99.90
18341;DHT22;9296;48.084;16.352;2023-04-08T17:21:18;7.50;99.90
18341;DHT22;9296;48.084;16.352;2023-04-08T17:23:45;7.50;99.90
18341;DHT22;9296;48.084;16.352;2023-04-08T17:26:12;7.50;99.90
18341;DHT22;9296;48.084;16.352;2023-04-08T17:28:39;7.50;99.90
18341;DHT22;9296;48.084;16.352;2023-04-08T17:31:08;7.50;99.90
18341;DHT22;9296;48.084;16.352;2023-04-08T17:33:35;7.40;99.90
18341;DHT22;9296;48.084;16.352;2023-04-08T17:36:02;7.30;99.90
18341;DHT22;9296;48.084;16.352;2023-04-08T17:38:31;7.30;99.90
18341;DHT22;9296;48.084;16.352;2023-04-08T17:40:58;7.30;99.90
18341;DHT22;9296;48.084;16.352;2023-04-08T17:43:25;7.30;99.90
18341;DHT22;9296;48.084;16.352;2023-04-08T17:45:52;7.30;99.90
18341;DHT22;9296;48.084;16.352;2023-04-08T17:48:18;7.20;99.90
18341;DHT22;9296;48.084;16.352;2023-04-08T17:50:45;7.20;99.90
18341;DHT22;9296;48.084;16.352;2023-04-08T17:53:12;7.30;99.90
18341;DHT22;9296;48.084;16.352;2023-04-08T17:55:40;7.30;99.90
18341;DHT22;9296;48.084;16.352;2023-04-08T17:58:07;7.30;99.90
18341;DHT22;9296;48.084;16.352;2023-04-08T18:00:34;7.30;99.90
18341;DHT22;9296;48.084;16.352;2023-04-08T18:03:01;7.20;99.90
18341;DHT22;9296;48.084;16.352;2023-04-08T18:05:59;7.20;99.90
18341;DHT22;9296;48.084;16.352;2023-04-08T18:08:26;7.10;99.90
18341;DHT22;9296;48.084;16.352;2023-04-08T18:10:54;7.00;99.90
18341;DHT22;9296;48.084;16.352;2023-04-08T18:13:21;7.20;99.90
18341;DHT22;9296;48.084;16.352;2023-04-08T18:15:48;7.00;99.90
18341;DHT22;9296;48.084;16.352;2023-04-08T18:18:16;6.90;99.90
18341;DHT22;9296;48.084;16.352;2023-04-08T18:20:44;7.00;99.90
18341;DHT22;9296;48.084;16.352;2023-04-08T18:23:11;6.90;99.90
18341;DHT22;9296;48.084;16.352;2023-04-08T18:25:38;6.90;99.90
18341;DHT22;9296;48.084;16.352;2023-04-08T18:28:08;6.90;99.90
18341;DHT22;9296;48.084;16.352;2023-04-08T18:30:35;6.90;99.90
18341;DHT22;9296;48.084;16.352;2023-04-08T18:33:02;7.00;99.90
18341;DHT22;9296;48.084;16.352;2023-04-08T18:35:29;6.90;99.90
18341;DHT22;9296;48.084;16.352;2023-04-08T18:37:56;6.90;99.90
18341;DHT22;9296;48.084;16.352;2023-04-08T18:40:23;6.90;99.90
18341;DHT22;9296;48.084;16.352;2023-04-08T18:42:50;7.00;99.90
18341;DHT22;9296;48.084;16.352;2023-04-08T18:45:18;7.00;99.90
18341;DHT22;9296;48.084;16.352;2023-04-08T18:47:45;7.00;99.90
18341;DHT22;9296;48.084;16.352;2023-04-08T18:50:12;6.90;99.90
18341;DHT22;9296;48.084;16.352;2023-04-08T18:52:59;6.90;99.90
18341;DHT22;9296;48.084;16.352;2023-04-08T18:55:26;6.90;99.90
18341;DHT22;9296;48.084;16.352;2023-04-08T18:57:53;6.90;99.90
18341;DHT22;9296;48.084;16.352;2023-04-08T19:00:21;6.90;99.90
18341;DHT22;9296;48.084;16.352;2023-04-08T19:02:48;6.90;99.90
18341;DHT22;9296;48.084;16.352;2023-04-08T19:05:15;6.90;99.90
18341;DHT22;9296;48.084;16.352;2023-04-08T19:11:04;6.90;99.90
18341;DHT22;9296;48.084;16.352;2023-04-08T19:13:31;6.90;99.90
18341;DHT22;9296;48.084;16.352;2023-04-08T19:16:00;6.90;99.90
18341;DHT22;9296;48.084;16.352;2023-04-08T19:18:26;6.90;99.90
18341;DHT22;9296;48.084;16.352;2023-04-08T19:21:13;6.90;99.90
18341;DHT22;9296;48.084;16.352;2023-04-08T19:23:40;6.90;99.90
18341;DHT22;9296;48.084;16.352;2023-04-08T19:26:07;7.00;99.90
18341;DHT22;9296;48.084;16.352;2023-04-08T19:28:34;7.00;99.90
18341;DHT22;9296;48.084;16.352;2023-04-08T19:31:03;6.90;99.90
18341;DHT22;9296;48.084;16.352;2023-04-08T19:33:30;6.90;99.90
18341;DHT22;9296;48.084;16.352;2023-04-08T19:35:58;6.90;99.90
18341;DHT22;9296;48.084;16.352;2023-04-08T19:38:25;6.90;99.90
18341;DHT22;9296;48.084;16.352;2023-04-08T19:40:52;6.80;99.90
18341;DHT22;9296;48.084;16.352;2023-04-08T19:43:19;6.90;99.90
18341;DHT22;9296;48.084;16.352;2023-04-08T19:45:45;6.80;99.90
18341;DHT22;9296;48.084;16.352;2023-04-08T19:48:14;6.80;99.90
18341;DHT22;9296;48.084;16.352;2023-04-08T19:50:41;6.80;99.90
18341;DHT22;9296;48.084;16.352;2023-04-08T19:53:45;6.80;99.90
18341;DHT22;9296;48.084;16.352;2023-04-08T19:56:14;6.80;99.90
18341;DHT22;9296;48.084;16.352;2023-04-08T19:58:40;6.90;99.90
18341;DHT22;9296;48.084;16.352;2023-04-08T20:01:07;6.80;99.90
18341;DHT22;9296;48.084;16.352;2023-04-08T20:03:36;6.80;99.90
18341;DHT22;9296;48.084;16.352;2023-04-08T20:06:03;6.80;99.90
18341;DHT22;9296;48.084;16.352;2023-04-08T20:08:30;6.80;99.90
18341;DHT22;9296;48.084;16.352;2023-04-08T20:10:59;7.00;99.90
18341;DHT22;9296;48.084;16.352;2023-04-08T20:13:26;6.80;99.90
18341;DHT22;9296;48.084;16.352;2023-04-08T20:15:53;6.80;99.90
18341;DHT22;9296;48.084;16.352;2023-04-08T20:18:21;6.80;99.90
18341;DHT22;9296;48.084;16.352;2023-04-08T20:20:50;6.70;99.90
18341;DHT22;9296;48.084;16.352;2023-04-08T20:23:35;6.70;99.90
18341;DHT22;9296;48.084;16.352;2023-04-08T20:26:04;6.80;99.90
18341;DHT22;9296;48.084;16.352;2023-04-08T20:28:31;6.70;99.90
18341;DHT22;9296;48.084;16.352;2023-04-08T20:30:58;6.70;99.90
18341;DHT22;9296;48.084;16.352;2023-04-08T20:33:26;6.70;99.90
18341;DHT22;9296;48.084;16.352;2023-04-08T20:35:54;6.70;99.90
18341;DHT22;9296;48.084;16.352;2023-04-08T20:41:43;6.80;99.90
18341;DHT22;9296;48.084;16.352;2023-04-08T20:44:11;6.80;99.90
18341;DHT22;9296;48.084;16.352;2023-04-08T20:46:37;6.80;99.90
18341;DHT22;9296;48.084;16.352;2023-04-08T20:49:04;6.80;99.90
18341;DHT22;9296;48.084;16.352;2023-04-08T20:54:57;6.80;99.90
18341;DHT22;9296;48.084;16.352;2023-04-08T20:57:24;6.80;99.90
18341;DHT22;9296;48.084;16.352;2023-04-08T20:59:50;6.80;99.90
18341;DHT22;9296;48.084;16.352;2023-04-08T21:02:17;6.80;99.90
18341;DHT22;9296;48.084;16.352;2023-04-08T21:04:45;6.80;99.90
18341;DHT22;9296;48.084;16.352;2023-04-08T21:07:13;6.90;99.90
18341;DHT22;9296;48.084;16.352;2023-04-08T21:09:40;6.90;99.90
18341;DHT22;9296;48.084;16.352;2023-04-08T21:12:08;6.90;99.90
18341;DHT22;9296;48.084;16.352;2023-04-08T21:14:35;6.90;99.90
18341;DHT22;9296;48.084;16.352;2023-04-08T21:17:01;6.90;99.90
18341;DHT22;9296;48.084;16.352;2023-04-08T21:19:28;6.90;99.90
18341;DHT22;9296;48.084;16.352;2023-04-08T21:21:55;6.90;99.90
18341;DHT22;9296;48.084;16.352;2023-04-08T21:24:22;6.90;99.90